Time;durP1;ratioP1;P1;durP2;ratioP2;P2;SDS_P1;SDS_P2;PMS_P1;PMS_P2;Temp;Humidity;BMP_temperature;BMP_pressure;BME280_temperature;BME280_humidity;BME280_pressure;Samples;Min_cycle;Max_cycle;Signal;HPM_P1;HPM_P2
2023/10/25 00:00:17;;;;;;;9.20;4.05;;;;;;;7.99;100.00;99998.22;5050914;28;20118;-46
2023/10/25 00:02:45;;;;;;;7.13;3.85;;;;;;;7.94;100.00;99993.31;5053407;28;20049;-47
2023/10/25 00:05:13;;;;;;;11.75;4.15;;;;;;;7.90;100.00;99991.84;5054161;28;20057;-48
2023/10/25 00:07:42;;;;;;;8.70;3.90;;;;;;;7.88;100.00;99991.09;5054194;28;20052;-47
2023/10/25 00:10:11;;;;;;;10.70;4.22;;;;;;;7.90;100.00;99986.59;5051730;28;20072;-53
2023/10/25 00:12:39;;;;;;;10.10;4.05;;;;;;;7.84;100.00;99987.88;5050553;28;20044;-51
2023/10/25 00:15:08;;;;;;;8.32;3.88;;;;;;;7.82;100.00;99984.50;5050278;28;20040;-53
2023/10/25 00:17:36;;;;;;;12.25;4.15;;;;;;;7.80;100.00;99986.41;5050515;28;20044;-54
2023/10/25 00:20:05;;;;;;;9.65;4.00;;;;;;;7.78;100.00;99980.41;5049520;28;20049;-54
2023/10/25 00:22:34;;;;;;;8.30;4.20;;;;;;;7.75;100.00;99986.69;5053628;28;20055;-54
2023/10/25 00:25:02;;;;;;;9.10;4.10;;;;;;;7.75;100.00;99985.84;5054011;28;20111;-55
2023/10/25 00:27:32;;;;;;;10.30;4.05;;;;;;;7.74;100.00;99987.66;5053828;28;20045;-54
2023/10/25 00:30:00;;;;;;;8.70;4.10;;;;;;;7.75;100.00;99989.31;5053604;28;20553;-53
2023/10/25 00:32:28;;;;;;;10.88;3.38;;;;;;;7.75;100.00;99986.69;5053857;28;20049;-55
2023/10/25 00:35:00;;;;;;;10.30;3.72;;;;;;;7.71;100.00;99982.59;5053622;28;20071;-55
2023/10/25 00:37:28;;;;;;;7.75;3.50;;;;;;;7.68;100.00;99981.97;5053965;28;20414;-53
2023/10/25 00:39:56;;;;;;;6.38;3.47;;;;;;;7.66;100.00;99978.63;5053664;28;20049;-53
2023/10/25 00:42:25;;;;;;;8.98;3.67;;;;;;;7.64;100.00;99985.75;5050915;28;20049;-53
2023/10/25 00:44:57;;;;;;;8.85;3.88;;;;;;;7.59;100.00;99989.50;5049921;28;20073;-54
2023/10/25 00:47:26;;;;;;;7.32;3.38;;;;;;;7.57;100.00;99995.78;5049900;28;20079;-54
2023/10/25 00:49:54;;;;;;;12.98;3.85;;;;;;;7.53;100.00;99997.75;5048321;28;20045;-55
2023/10/25 00:52:22;;;;;;;7.95;3.47;;;;;;;7.51;100.00;99994.41;5051958;28;20510;-53
2023/10/25 00:54:51;;;;;;;8.07;3.38;;;;;;;7.52;100.00;99996.06;5050319;28;20064;-53
2023/10/25 00:57:20;;;;;;;10.77;3.67;;;;;;;7.47;100.00;99992.06;5050644;28;20057;-54
2023/10/25 00:59:51;;;;;;;8.43;3.92;;;;;;;7.45;100.00;99997.41;5052340;28;20049;-54
2023/10/25 01:02:23;;;;;;;7.70;3.50;;;;;;;7.41;100.00;99994.16;5050346;28;20115;-53
2023/10/25 01:04:52;;;;;;;9.40;3.80;;;;;;;7.39;100.00;99992.56;5049979;28;20051;-54
2023/10/25 01:07:20;;;;;;;8.30;3.47;;;;;;;7.36;100.00;99991.00;5052838;28;20037;-52
2023/10/25 01:09:48;;;;;;;8.52;3.47;;;;;;;7.37;100.00;99997.06;5050074;28;20072;-54
2023/10/25 01:12:17;;;;;;;12.20;3.97;;;;;;;7.31;100.00;99994.84;5050234;28;20514;-53
2023/10/25 01:14:45;;;;;;;9.00;3.33;;;;;;;7.30;100.00;99995.81;5049169;28;20128;-51
2023/10/25 01:17:13;;;;;;;7.57;3.70;;;;;;;7.28;100.00;100001.97;5052960;28;20482;-55
2023/10/25 01:19:43;;;;;;;7.78;3.20;;;;;;;7.26;100.00;99995.16;5052934;28;20103;-51
2023/10/25 01:22:14;;;;;;;6.93;3.20;;;;;;;7.21;100.00;99990.22;5052919;28;20127;-54
2023/10/25 01:24:43;;;;;;;8.75;3.53;;;;;;;7.17;100.00;99988.75;5051526;28;20095;-55
2023/10/25 01:27:12;;;;;;;10.75;3.58;;;;;;;7.13;100.00;99984.66;5051251;28;20416;-56
2023/10/25 01:29:40;;;;;;;9.30;3.28;;;;;;;7.10;100.00;99987.44;5052676;28;20139;-55
2023/10/25 01:32:09;;;;;;;9.32;3.30;;;;;;;7.09;100.00;99978.78;5051353;28;20071;-52
2023/10/25 01:34:37;;;;;;;8.40;3.50;;;;;;;7.06;100.00;99980.75;5052095;28;20059;-52
2023/10/25 01:37:05;;;;;;;10.15;3.78;;;;;;;7.02;100.00;99984.50;5052051;28;20110;-52
2023/10/25 01:39:34;;;;;;;7.63;3.22;;;;;;;6.99;100.00;99984.69;5052375;28;20048;-54
2023/10/25 01:42:03;;;;;;;7.47;3.20;;;;;;;6.96;100.00;99980.50;5051056;28;20152;-53
2023/10/25 01:44:32;;;;;;;10.43;3.83;;;;;;;6.91;100.00;99978.19;5052524;28;20068;-52
2023/10/25 01:47:00;;;;;;;9.95;3.17;;;;;;;6.85;100.00;99970.72;5049630;28;20523;-53
2023/10/25 01:49:28;;;;;;;7.45;3.10;;;;;;;6.82;100.00;99980.56;5048319;28;20052;-53
2023/10/25 01:51:57;;;;;;;6.35;3.17;;;;;;;6.78;100.00;99979.91;5049378;28;20044;-53
2023/10/25 01:54:26;;;;;;;8.85;3.63;;;;;;;6.78;100.00;99969.44;5052254;28;20411;-51
2023/10/25 01:56:54;;;;;;;8.45;3.35;;;;;;;6.73;100.00;99968.88;5052025;28;20052;-54
2023/10/25 01:59:23;;;;;;;6.95;3.50;;;;;;;6.72;100.00;99969.81;5050889;28;20436;-53
2023/10/25 02:01:51;;;;;;;8.23;3.83;;;;;;;6.69;100.00;99963.00;5048362;28;20055;-51
2023/10/25 02:04:19;;;;;;;10.50;3.58;;;;;;;6.68;100.00;99963.97;5048610;28;21156;-52
2023/10/25 02:06:51;;;;;;;9.27;3.60;;;;;;;6.60;100.00;99966.22;5050835;28;20055;-53
2023/10/25 02:09:20;;;;;;;7.80;3.47;;;;;;;6.56;100.00;99952.50;5049174;28;20045;-52
2023/10/25 02:11:51;;;;;;;11.40;3.47;;;;;;;6.53;100.00;99954.44;5048805;28;20063;-52
2023/10/25 02:14:19;;;;;;;7.57;3.33;;;;;;;6.48;100.00;99952.13;5051486;28;20033;-54
2023/10/25 02:16:49;;;;;;;10.65;3.30;;;;;;;6.41;100.00;99950.84;5051980;28;20132;-51
2023/10/25 02:19:17;;;;;;;11.25;3.60;;;;;;;6.40;100.00;99943.94;5049349;28;20037;-52
2023/10/25 02:21:46;;;;;;;8.88;3.83;;;;;;;6.34;100.00;99945.16;5048103;28;20076;-54
2023/10/25 02:24:15;;;;;;;9.40;3.80;;;;;;;6.33;100.00;99945.25;5050477;28;20047;-52
2023/10/25 02:26:44;;;;;;;8.30;3.80;;;;;;;6.33;100.00;99938.25;5051897;28;20399;-54
2023/10/25 02:29:12;;;;;;;6.88;3.45;;;;;;;6.31;100.00;99940.09;5051869;28;20041;-54
2023/10/25 02:31:43;;;;;;;7.18;3.58;;;;;;;6.26;100.00;99934.34;5051689;28;20534;-52
2023/10/25 02:34:13;;;;;;;9.48;3.78;;;;;;;6.24;100.00;99944.03;5051460;28;20075;-54
2023/10/25 02:36:41;;;;;;;9.20;3.67;;;;;;;6.21;100.00;99936.41;5051804;28;20045;-54
2023/10/25 02:39:10;;;;;;;10.75;4.63;;;;;;;6.19;100.00;99931.28;5050297;28;20052;-55
2023/10/25 02:41:38;;;;;;;10.38;4.40;;;;;;;6.18;100.00;99926.97;5050848;28;20047;-53
2023/10/25 02:44:06;;;;;;;9.95;5.40;;;;;;;6.18;100.00;99921.75;5047559;28;20056;-50
2023/10/25 02:46:34;;;;;;;9.38;5.00;;;;;;;6.19;100.00;99913.00;5048598;28;20064;-51
2023/10/25 02:49:03;;;;;;;10.07;4.82;;;;;;;6.20;100.00;99916.44;5047466;28;20056;-52
2023/10/25 02:51:32;;;;;;;12.20;5.60;;;;;;;6.23;100.00;99921.47;5050060;28;20063;-51
2023/10/25 02:54:00;;;;;;;9.88;5.03;;;;;;;6.23;100.00;99924.94;5048370;28;20049;-52
2023/10/25 02:56:29;;;;;;;14.68;5.15;;;;;;;6.21;100.00;99924.16;5048490;28;20053;-54
2023/10/25 02:58:57;;;;;;;8.15;4.53;;;;;;;6.20;100.00;99919.91;5047841;28;20481;-52
2023/10/25 03:01:25;;;;;;;12.35;4.90;;;;;;;6.18;100.00;99915.72;5048410;28;20045;-54
2023/10/25 03:03:54;;;;;;;12.30;5.72;;;;;;;6.18;100.00;99913.91;5046881;28;20801;-53
2023/10/25 03:06:21;;;;;;;11.38;5.30;;;;;;;6.22;100.00;99918.03;5047738;28;20049;-54
2023/10/25 03:08:51;;;;;;;13.82;6.88;;;;;;;6.24;100.00;99910.09;5047938;28;20056;-54
2023/10/25 03:11:19;;;;;;;9.38;5.22;;;;;;;6.21;100.00;99905.06;5047968;28;20045;-50
2023/10/25 03:13:47;;;;;;;10.25;5.18;;;;;;;6.15;100.00;99906.28;5049517;28;20041;-53
2023/10/25 03:16:15;;;;;;;10.02;4.70;;;;;;;6.09;100.00;99898.81;5051924;28;20045;-54
2023/10/25 03:18:44;;;;;;;9.25;4.85;;;;;;;6.06;100.00;99897.22;5051767;28;20124;-53
2023/10/25 03:21:12;;;;;;;12.82;5.00;;;;;;;6.02;100.00;99900.97;5051319;28;20119;-53
2023/10/25 03:23:40;;;;;;;8.75;4.38;;;;;;;6.00;100.00;99892.41;5055210;28;20426;-53
2023/10/25 03:26:10;;;;;;;13.85;5.22;;;;;;;5.99;100.00;99889.88;5055049;28;20531;-52
2023/10/25 03:28:39;;;;;;;11.63;5.03;;;;;;;5.95;100.00;99886.59;5054982;28;20123;-54
2023/10/25 03:31:09;;;;;;;8.85;4.50;;;;;;;5.91;100.00;99885.91;5052108;28;20053;-52
2023/10/25 03:33:37;;;;;;;8.90;4.72;;;;;;;5.89;100.00;99890.41;5051700;28;20052;-54
2023/10/25 03:36:06;;;;;;;10.45;4.55;;;;;;;5.88;100.00;99888.72;5050445;28;20408;-52
2023/10/25 03:38:35;;;;;;;9.23;4.35;;;;;;;5.85;100.00;99878.47;5051862;28;20044;-52
2023/10/25 03:41:04;;;;;;;8.38;3.70;;;;;;;5.85;100.00;99883.69;5051549;28;20057;-53
2023/10/25 03:43:35;;;;;;;9.73;4.53;;;;;;;5.82;100.00;99883.91;5054712;28;20072;-52
2023/10/25 03:46:04;;;;;;;8.30;4.10;;;;;;;5.81;100.00;99882.22;5054573;28;20037;-52
2023/10/25 03:48:33;;;;;;;7.57;4.10;;;;;;;5.77;100.00;99872.88;5051288;28;20049;-51
2023/10/25 03:51:04;;;;;;;8.77;4.32;;;;;;;5.75;100.00;99874.75;5051297;28;20612;-53
2023/10/25 03:53:34;;;;;;;10.25;4.18;;;;;;;5.72;100.00;99872.31;5054630;28;20493;-53
2023/10/25 03:56:03;;;;;;;12.23;4.25;;;;;;;5.69;100.00;99875.13;5051743;28;20084;-52
2023/10/25 03:58:32;;;;;;;9.50;4.18;;;;;;;5.68;100.00;99863.00;5051511;28;20053;-54
2023/10/25 04:01:02;;;;;;;9.50;4.38;;;;;;;5.67;100.00;99869.16;5053490;28;20079;-50
2023/10/25 04:03:34;;;;;;;8.68;4.30;;;;;;;5.67;100.00;99866.53;5051108;28;20110;-53
2023/10/25 04:06:03;;;;;;;9.52;4.10;;;;;;;5.63;100.00;99855.47;5050004;28;20112;-54
2023/10/25 04:08:32;;;;;;;10.82;4.15;;;;;;;5.65;100.00;99863.19;5051386;28;20118;-53
2023/10/25 04:11:00;;;;;;;10.68;4.30;;;;;;;5.62;100.00;99861.59;5050978;28;20055;-52
2023/10/25 04:13:29;;;;;;;8.57;3.95;;;;;;;5.59;100.00;99856.59;5051140;28;20491;-51
2023/10/25 04:15:58;;;;;;;9.65;4.22;;;;;;;5.57;100.00;99858.44;5051396;28;20040;-52
2023/10/25 04:18:29;;;;;;;8.20;3.90;;;;;;;5.53;100.00;99856.94;5054117;28;20053;-52
2023/10/25 04:20:59;;;;;;;9.98;4.30;;;;;;;5.52;100.00;99856.09;5054061;28;20113;-53
2023/10/25 04:23:29;;;;;;;9.10;4.63;;;;;;;5.51;100.00;99854.44;5051105;28;20053;-53
2023/10/25 04:26:04;;;;;;;9.18;4.50;;;;;;;5.48;100.00;99857.22;5050134;28;20049;-52
2023/10/25 04:28:32;;;;;;;8.88;3.72;;;;;;;5.45;100.00;99854.78;5049223;28;20783;-54
2023/10/25 04:31:01;;;;;;;7.15;3.30;;;;;;;5.44;100.00;99852.25;5050154;28;20052;-54
2023/10/25 04:33:31;;;;;;;10.63;4.10;;;;;;;5.44;100.00;99853.13;5050426;28;20045;-53
2023/10/25 04:35:59;;;;;;;9.30;4.38;;;;;;;5.44;100.00;99847.91;5050357;28;20049;-53
2023/10/25 04:38:27;;;;;;;8.60;4.10;;;;;;;5.43;100.00;99843.63;5053524;28;20083;-51
2023/10/25 04:40:56;;;;;;;8.73;4.00;;;;;;;5.42;100.00;99831.50;5052186;28;20132;-53
2023/10/25 04:43:24;;;;;;;9.45;4.30;;;;;;;5.37;100.00;99829.19;5053403;28;20435;-52
2023/10/25 04:45:52;;;;;;;7.55;4.05;;;;;;;5.39;100.00;99831.69;5053542;28;20565;-52
2023/10/25 04:48:20;;;;;;;9.07;4.25;;;;;;;5.41;100.00;99827.19;5053663;28;20142;-51
2023/10/25 04:50:50;;;;;;;9.45;4.35;;;;;;;5.40;100.00;99828.16;5053356;28;20052;-52
2023/10/25 04:53:21;;;;;;;7.40;3.80;;;;;;;5.39;100.00;99823.88;5053549;28;20045;-51
2023/10/25 04:55:52;;;;;;;9.82;4.38;;;;;;;5.39;100.00;99819.47;5051434;28;20530;-53
2023/10/25 04:58:21;;;;;;;8.38;4.07;;;;;;;5.40;100.00;99815.94;5050307;28;20102;-51
2023/10/25 05:00:49;;;;;;;10.52;4.97;;;;;;;5.42;100.00;99826.28;5050212;28;20606;-52
2023/10/25 05:03:18;;;;;;;12.23;4.85;;;;;;;5.43;100.00;99817.53;5052630;28;20549;-53
2023/10/25 05:05:48;;;;;;;10.30;5.00;;;;;;;5.47;100.00;99820.78;5053124;28;20052;-53
2023/10/25 05:08:18;;;;;;;9.35;5.32;;;;;;;5.49;100.00;99814.53;5053134;28;20051;-53
2023/10/25 05:10:52;;;;;;;11.77;6.30;;;;;;;5.53;100.00;99816.03;5052997;28;20059;-53
2023/10/25 05:13:21;;;;;;;12.15;6.10;;;;;;;5.60;100.00;99813.88;5052953;28;20412;-54
2023/10/25 05:15:49;;;;;;;12.80;6.05;;;;;;;5.65;100.00;99811.84;5052834;28;20094;-51
2023/10/25 05:18:18;;;;;;;10.52;6.03;;;;;;;5.68;100.00;99808.22;5052615;28;20056;-54
2023/10/25 05:20:47;;;;;;;12.63;6.35;;;;;;;5.69;100.00;99810.72;5052909;28;20468;-52
2023/10/25 05:23:17;;;;;;;12.15;7.05;;;;;;;5.74;100.00;99805.25;5052769;28;20052;-52
2023/10/25 05:25:46;;;;;;;12.25;6.28;;;;;;;5.75;100.00;99793.84;5052697;28;20060;-53
2023/10/25 05:28:15;;;;;;;12.13;5.95;;;;;;;5.75;100.00;99792.09;5052710;28;20455;-52
2023/10/25 05:30:43;;;;;;;12.93;6.40;;;;;;;5.78;100.00;99785.88;5052670;28;20064;-53
2023/10/25 05:33:14;;;;;;;11.45;6.00;;;;;;;5.82;100.00;99789.97;5051001;28;20128;-53
2023/10/25 05:35:43;;;;;;;10.32;6.57;;;;;;;5.83;100.00;99786.38;5047215;28;20057;-53
2023/10/25 05:38:13;;;;;;;11.18;5.82;;;;;;;5.84;100.00;99790.69;5050220;28;20451;-54
2023/10/25 05:40:44;;;;;;;11.80;6.32;;;;;;;5.89;100.00;99791.25;5052308;28;20067;-48
2023/10/25 05:43:15;;;;;;;13.25;6.35;;;;;;;5.90;100.00;99782.47;5052204;28;20049;-54
2023/10/25 05:45:44;;;;;;;11.13;6.10;;;;;;;5.98;100.00;99778.59;5052577;28;20045;-52
2023/10/25 05:48:15;;;;;;;11.88;6.00;;;;;;;6.07;100.00;99783.22;5052274;28;20079;-45
2023/10/25 05:50:44;;;;;;;10.50;6.00;;;;;;;6.08;100.00;99785.75;5052224;28;20491;-46
2023/10/25 05:53:13;;;;;;;12.25;6.25;;;;;;;6.11;100.00;99783.84;5052120;28;20588;-49
2023/10/25 05:55:44;;;;;;;9.23;5.95;;;;;;;6.15;100.00;99778.34;5051968;28;20045;-47
2023/10/25 05:58:12;;;;;;;12.40;6.20;;;;;;;6.19;100.00;99773.75;5052346;28;20060;-47
2023/10/25 06:00:46;;;;;;;10.40;5.72;;;;;;;6.22;100.00;99776.19;5052095;28;20037;-46
2023/10/25 06:03:18;;;;;;;11.48;5.85;;;;;;;6.29;100.00;99772.25;5051908;28;20090;-47
2023/10/25 06:05:53;;;;;;;10.23;5.88;;;;;;;6.32;100.00;99764.22;5051986;28;20041;-46
2023/10/25 06:08:24;;;;;;;13.65;6.30;;;;;;;6.34;100.00;99762.34;5052031;28;20511;-47
2023/10/25 06:10:55;;;;;;;11.55;6.20;;;;;;;6.38;100.00;99760.34;5051924;28;20049;-48
2023/10/25 06:13:24;;;;;;;13.05;5.70;;;;;;;6.40;100.00;99763.72;5051965;28;20052;-54
2023/10/25 06:15:53;;;;;;;9.73;5.78;;;;;;;6.44;100.00;99759.97;5048817;28;20431;-53
2023/10/25 06:18:21;;;;;;;10.23;5.72;;;;;;;6.46;100.00;99767.72;5048512;28;20151;-53
2023/10/25 06:20:49;;;;;;;13.13;5.78;;;;;;;6.48;100.00;99765.84;5051757;28;20396;-54
2023/10/25 06:23:17;;;;;;;10.15;5.07;;;;;;;6.52;100.00;99765.53;5051649;28;20131;-54
2023/10/25 06:25:45;;;;;;;9.10;5.32;;;;;;;6.54;100.00;99757.59;5050044;28;20068;-51
2023/10/25 06:28:15;;;;;;;10.40;5.43;;;;;;;6.60;100.00;99763.25;5048392;28;20063;-53
2023/10/25 06:30:43;;;;;;;11.20;5.03;;;;;;;6.63;100.00;99761.38;5050814;28;20044;-52
2023/10/25 06:33:11;;;;;;;9.88;5.20;;;;;;;6.65;100.00;99756.88;5050937;28;20446;-54
2023/10/25 06:35:39;;;;;;;8.85;5.30;;;;;;;6.68;100.00;99752.31;5046651;28;20071;-48
2023/10/25 06:38:09;;;;;;;7.65;4.95;;;;;;;6.71;100.00;99749.47;5049507;28;20041;-46
2023/10/25 06:40:38;;;;;;;12.10;5.45;;;;;;;6.74;100.00;99751.06;5050387;28;20055;-46
2023/10/25 06:43:10;;;;;;;9.13;5.03;;;;;;;6.78;100.00;99744.69;5051444;28;20518;-46
2023/10/25 06:45:41;;;;;;;9.75;4.88;;;;;;;6.80;100.00;99734.94;5050406;28;20585;-46
2023/10/25 06:48:10;;;;;;;9.13;4.82;;;;;;;6.84;100.00;99732.97;5053652;28;20438;-46
2023/10/25 06:50:38;;;;;;;10.95;5.25;;;;;;;6.87;100.00;99725.78;5054368;28;20052;-46
2023/10/25 06:53:07;;;;;;;10.95;5.85;;;;;;;6.93;100.00;99719.28;5055702;28;20045;-47
2023/10/25 06:55:36;;;;;;;10.48;5.53;;;;;;;6.98;100.00;99729.44;5055673;28;20067;-47
2023/10/25 06:58:04;;;;;;;9.25;4.95;;;;;;;7.01;100.00;99713.53;5055542;28;20052;-48
2023/10/25 07:00:33;;;;;;;11.13;5.25;;;;;;;7.04;100.00;99714.16;5055470;28;20048;-47
2023/10/25 07:03:04;;;;;;;10.85;5.43;;;;;;;7.09;100.00;99713.88;5055480;28;20129;-47
2023/10/25 07:05:33;;;;;;;13.80;5.68;;;;;;;7.17;100.00;99711.56;5055446;28;20373;-46
2023/10/25 07:08:01;;;;;;;9.85;5.40;;;;;;;7.19;100.00;99704.44;5055386;28;20048;-53
2023/10/25 07:10:30;;;;;;;13.20;5.90;;;;;;;7.24;100.00;99699.72;5055295;28;20397;-53
2023/10/25 07:13:00;;;;;;;9.10;5.07;;;;;;;7.27;100.00;99690.84;5054266;28;20084;-47
2023/10/25 07:15:32;;;;;;;14.10;6.78;;;;;;;7.32;100.00;99695.72;5051994;28;20098;-46
2023/10/25 07:18:01;;;;;;;9.93;5.95;;;;;;;7.34;100.00;99694.69;5053692;28;20048;-48
2023/10/25 07:20:31;;;;;;;14.00;6.40;;;;;;;7.38;100.00;99692.69;5055235;28;20067;-54
2023/10/25 07:23:00;;;;;;;12.35;6.03;;;;;;;7.43;100.00;99686.19;5055094;28;20132;-46
2023/10/25 07:25:28;;;;;;;16.00;6.43;;;;;;;7.48;100.00;99683.25;5055212;28;20483;-53
2023/10/25 07:27:57;;;;;;;11.40;6.30;;;;;;;7.52;100.00;99682.09;5053818;28;20052;-47
2023/10/25 07:30:27;;;;;;;11.63;5.50;;;;;;;7.59;100.00;99685.97;5055096;28;20045;-54
2023/10/25 07:32:58;;;;;;;12.60;6.68;;;;;;;7.67;100.00;99677.53;5055032;28;20056;-54
2023/10/25 07:35:27;;;;;;;12.55;6.50;;;;;;;7.71;100.00;99668.53;5055124;28;20098;-53
2023/10/25 07:37:56;;;;;;;11.98;7.20;;;;;;;7.78;100.00;99668.94;5055365;28;20056;-45
2023/10/25 07:40:24;;;;;;;12.63;6.80;;;;;;;7.84;100.00;99663.25;5054943;28;20522;-46
2023/10/25 07:42:52;;;;;;;14.52;7.35;;;;;;;7.90;100.00;99660.19;5053456;28;20114;-46
2023/10/25 07:45:21;;;;;;;12.65;6.95;;;;;;;7.96;100.00;99658.88;5054752;28;20053;-53
2023/10/25 07:47:49;;;;;;;11.82;6.88;;;;;;;8.02;100.00;99658.47;5054742;28;20045;-54
2023/10/25 07:50:20;;;;;;;16.25;7.55;;;;;;;8.09;100.00;99648.38;5053310;28;20057;-46
2023/10/25 07:52:49;;;;;;;13.38;8.07;;;;;;;8.10;100.00;99648.25;5054603;28;20057;-46
2023/10/25 07:55:19;;;;;;;15.45;7.28;;;;;;;8.20;100.00;99637.09;5054372;28;20106;-46
2023/10/25 07:58:08;;;;;;;15.07;7.07;;;;;;;8.23;100.00;99635.06;5054583;28;20127;-45
2023/10/25 08:00:39;;;;;;;15.20;8.00;;;;;;;8.28;100.00;99635.56;5053761;28;20048;-54
2023/10/25 08:03:07;;;;;;;16.05;7.25;;;;;;;8.32;100.00;99630.94;5054599;28;20053;-46
2023/10/25 08:05:35;;;;;;;14.10;6.95;;;;;;;8.33;100.00;99618.66;5054181;28;20049;-46
2023/10/25 08:08:03;;;;;;;14.55;6.95;;;;;;;8.38;100.00;99621.78;5054419;28;20136;-47
2023/10/25 08:10:32;;;;;;;14.88;6.40;;;;;;;8.44;100.00;99623.97;5054222;28;20053;-46
2023/10/25 08:13:04;;;;;;;11.60;6.43;;;;;;;8.45;100.00;99612.53;5054230;28;20041;-45
2023/10/25 08:15:36;;;;;;;11.80;6.57;;;;;;;8.48;100.00;99612.31;5054275;28;20560;-46
2023/10/25 08:18:05;;;;;;;13.35;6.38;;;;;;;8.51;100.00;99608.59;5053996;28;20056;-45
2023/10/25 08:20:36;;;;;;;8.90;5.63;;;;;;;8.55;100.00;99610.91;5054112;28;20080;-49
2023/10/25 08:23:04;;;;;;;11.38;6.07;;;;;;;8.61;100.00;99613.03;5054133;28;20047;-47
2023/10/25 08:25:37;;;;;;;14.88;6.05;;;;;;;8.63;100.00;99607.69;5053949;28;20066;-49
2023/10/25 08:28:05;;;;;;;9.25;5.30;;;;;;;8.65;100.00;99603.16;5052647;28;20051;-47
2023/10/25 08:30:33;;;;;;;12.05;5.97;;;;;;;8.66;100.00;99609.22;5053820;28;20095;-50
2023/10/25 08:33:01;;;;;;;15.35;5.75;;;;;;;8.67;100.00;99603.03;5052429;28;20064;-47
2023/10/25 08:35:29;;;;;;;9.15;4.75;;;;;;;8.72;100.00;99596.47;5053864;28;20041;-54
2023/10/25 08:37:57;;;;;;;10.40;5.45;;;;;;;8.76;100.00;99594.47;5053592;28;20123;-48
2023/10/25 08:40:26;;;;;;;12.02;5.72;;;;;;;8.80;100.00;99599.34;5053853;28;20059;-52
2023/10/25 08:42:58;;;;;;;11.50;5.47;;;;;;;8.82;100.00;99591.38;5052400;28;20411;-47
2023/10/25 08:45:27;;;;;;;12.85;5.43;;;;;;;8.83;100.00;99592.22;5053562;28;20059;-47
2023/10/25 08:47:55;;;;;;;14.05;5.45;;;;;;;8.84;100.00;99586.84;5051077;28;20143;-54
2023/10/25 08:50:23;;;;;;;8.75;4.95;;;;;;;8.85;100.00;99591.16;5049176;28;20168;-54
2023/10/25 08:52:57;;;;;;;12.07;5.47;;;;;;;8.89;100.00;99587.31;5050982;28;20616;-52
2023/10/25 08:55:25;;;;;;;11.05;5.00;;;;;;;8.92;100.00;99589.69;5051765;28;20059;-48
2023/10/25 08:57:56;;;;;;;8.60;5.05;;;;;;;8.95;100.00;99584.22;5053417;28;20068;-54
2023/10/25 09:00:28;;;;;;;10.25;5.43;;;;;;;8.98;100.00;99590.19;5053327;28;20139;-54
2023/10/25 09:03:40;;;;;;;12.18;5.78;;;;;;;8.99;100.00;99576.94;5053373;28;20037;-50
2023/10/25 09:06:10;;;;;;;10.55;5.25;;;;;;;9.07;100.00;99563.25;5051162;28;20049;-48
2023/10/25 09:08:39;;;;;;;11.77;5.20;;;;;;;9.07;100.00;99568.47;5049776;28;20699;-50
2023/10/25 09:11:10;;;;;;;13.80;4.85;;;;;;;9.14;100.00;99561.78;5052528;28;20099;-49
2023/10/25 09:13:42;;;;;;;11.07;5.50;;;;;;;9.15;100.00;99566.09;5052211;28;20478;-53
2023/10/25 09:16:13;;;;;;;11.77;5.28;;;;;;;9.18;100.00;99563.22;5049477;28;20077;-48
2023/10/25 09:18:42;;;;;;;13.27;4.70;;;;;;;9.17;100.00;99553.66;5051535;28;20455;-46
2023/10/25 09:21:11;;;;;;;10.98;5.57;;;;;;;9.18;100.00;99557.13;5052964;28;20491;-49
2023/10/25 09:23:41;;;;;;;9.23;4.93;;;;;;;9.22;100.00;99553.31;5049289;28;20403;-51
2023/10/25 09:26:15;;;;;;;10.68;5.78;;;;;;;9.25;100.00;99543.41;5049987;28;20091;-48
2023/10/25 09:28:45;;;;;;;9.80;5.43;;;;;;;9.24;100.00;99544.38;5052916;28;20106;-49
2023/10/25 09:31:26;;;;;;;11.48;5.72;;;;;;;9.27;100.00;99532.78;5051498;28;20055;-53
2023/10/25 09:33:57;;;;;;;11.07;5.68;;;;;;;9.28;100.00;99532.66;5052597;28;20055;-53
2023/10/25 09:36:29;;;;;;;12.18;6.10;;;;;;;9.30;100.00;99522.88;5052846;28;20099;-50
2023/10/25 09:38:57;;;;;;;10.65;5.78;;;;;;;9.30;100.00;99522.88;5051489;28;20061;-53
2023/10/25 09:41:34;;;;;;;12.93;5.78;;;;;;;9.34;100.00;99531.34;5049954;28;20087;-53
2023/10/25 09:44:09;;;;;;;9.80;5.50;;;;;;;9.39;100.00;99526.53;5051323;28;20613;-53
2023/10/25 09:46:40;;;;;;;13.88;7.05;;;;;;;9.41;100.00;99523.81;5052332;28;20048;-53
2023/10/25 09:49:10;;;;;;;14.27;5.85;;;;;;;9.41;100.00;99513.31;5052557;28;20065;-50
2023/10/25 09:52:00;;;;;;;12.38;6.38;;;;;;;9.45;100.00;99504.22;5052258;28;20531;-49
2023/10/25 09:54:32;;;;;;;10.25;6.10;;;;;;;9.47;100.00;99515.41;5052307;28;20687;-50
2023/10/25 09:57:02;;;;;;;11.82;6.20;;;;;;;9.52;100.00;99509.81;5052113;28;20045;-54
2023/10/25 09:59:32;;;;;;;12.20;6.70;;;;;;;9.57;100.00;99518.97;5049151;28;20045;-49
2023/10/25 10:02:03;;;;;;;11.43;5.97;;;;;;;9.59;100.00;99509.16;5048320;28;20048;-48
2023/10/25 10:04:45;;;;;;;11.45;6.28;;;;;;;9.62;100.00;99508.91;5047512;28;20143;-46
2023/10/25 10:07:27;;;;;;;11.20;5.95;;;;;;;9.64;100.00;99501.75;5049928;28;20060;-54
2023/10/25 10:10:03;;;;;;;11.43;6.20;;;;;;;9.66;100.00;99495.53;5052060;28;20064;-54
2023/10/25 10:12:31;;;;;;;10.68;6.10;;;;;;;9.66;100.00;99496.38;5052031;28;20059;-54
2023/10/25 10:14:59;;;;;;;11.95;5.70;;;;;;;9.64;100.00;99488.63;5048709;28;20112;-55
2023/10/25 10:17:35;;;;;;;11.88;5.68;;;;;;;9.66;100.00;99479.78;5049086;28;20076;-54
2023/10/25 10:20:06;;;;;;;11.25;5.85;;;;;;;9.67;100.00;99479.66;5050635;28;20040;-55
2023/10/25 10:22:34;;;;;;;9.40;5.13;;;;;;;9.67;100.00;99471.78;5048306;28;20401;-54
2023/10/25 10:25:04;;;;;;;11.90;5.63;;;;;;;9.71;100.00;99477.63;5048004;28;20049;-55
2023/10/25 10:28:07;;;;;;;12.40;7.03;;;;;;;9.76;100.00;99463.16;5051903;28;20041;-55
2023/10/25 10:30:38;;;;;;;;;;;;;;;9.75;100.00;99455.41;5045931;28;20407;-53
2023/10/25 10:33:11;;;;;;;11.55;5.43;;;;;;;9.78;100.00;99455.97;5051770;28;19925;-54
2023/10/25 10:35:47;;;;;;;10.60;4.88;;;;;;;9.77;100.00;99456.91;5050495;28;20102;-54
2023/10/25 10:38:16;;;;;;;13.18;5.22;;;;;;;9.77;100.00;99443.78;5051839;28;20490;-53
2023/10/25 10:40:51;;;;;;;15.50;4.90;;;;;;;9.79;100.00;99446.31;5049189;28;20502;-54
2023/10/25 10:43:20;;;;;;;10.35;4.72;;;;;;;9.80;100.00;99440.94;5049277;28;20111;-54
2023/10/25 10:45:53;;;;;;;10.25;5.03;;;;;;;9.77;100.00;99441.16;5051558;28;20434;-54
2023/10/25 10:48:33;;;;;;;11.55;4.85;;;;;;;9.78;100.00;99429.72;5051844;28;20435;-52
2023/10/25 10:51:02;;;;;;;9.65;4.18;;;;;;;9.76;100.00;99425.53;5051570;28;20048;-54
2023/10/25 10:53:30;;;;;;;10.02;4.35;;;;;;;9.76;100.00;99429.03;5051629;28;20049;-54
2023/10/25 10:55:58;;;;;;;11.43;5.03;;;;;;;9.78;100.00;99426.25;5051435;28;20084;-53
2023/10/25 10:58:29;;;;;;;12.02;4.93;;;;;;;9.79;100.00;99425.31;5049070;28;20132;-56
2023/10/25 11:00:58;;;;;;;10.85;4.88;;;;;;;9.79;100.00;99420.88;5047896;28;20079;-56
2023/10/25 11:03:29;;;;;;;9.50;4.15;;;;;;;9.81;100.00;99426.81;5048522;28;20044;-55
2023/10/25 11:05:59;;;;;;;9.10;4.07;;;;;;;9.83;100.00;99413.59;5049872;28;20488;-53
2023/10/25 11:08:28;;;;;;;10.38;3.90;;;;;;;9.87;100.00;99415.00;5050777;28;20049;-54
2023/10/25 11:10:56;;;;;;;11.07;4.15;;;;;;;9.88;100.00;99408.75;5046608;28;20436;-54
2023/10/25 11:13:28;;;;;;;10.57;3.92;;;;;;;9.88;100.00;99408.75;5050092;28;20045;-53
2023/10/25 11:16:02;;;;;;;9.95;3.80;;;;;;;9.88;100.00;99406.13;5051237;28;20075;-54
2023/10/25 11:18:32;;;;;;;9.18;4.00;;;;;;;9.91;100.00;99392.75;5051335;28;20463;-54
2023/10/25 11:21:00;;;;;;;8.82;3.65;;;;;;;9.93;100.00;99390.81;5051382;28;20041;-52
2023/10/25 11:23:29;;;;;;;11.25;4.35;;;;;;;9.94;100.00;99379.34;5051281;28;20083;-55
2023/10/25 11:25:57;;;;;;;9.02;3.92;;;;;;;9.97;100.00;99379.09;5049014;28;20049;-54
2023/10/25 11:28:27;;;;;;;9.50;4.25;;;;;;;10.00;100.00;99374.53;5048348;28;20049;-54
2023/10/25 11:31:02;;;;;;;12.15;4.50;;;;;;;10.00;100.00;99359.59;5050669;28;20055;-54
2023/10/25 11:33:43;;;;;;;10.57;3.97;;;;;;;10.00;100.00;99358.78;5051170;28;20045;-54
2023/10/25 11:36:11;;;;;;;10.95;4.45;;;;;;;9.98;100.00;99338.72;5054721;28;20380;-54
2023/10/25 11:38:43;;;;;;;7.75;4.32;;;;;;;9.96;100.00;99337.19;5054806;28;20080;-54
2023/10/25 11:41:11;;;;;;;10.90;4.20;;;;;;;9.96;100.00;99334.56;5067351;28;20053;-54